createdAt,value
2023-05-22T00:02:11.967Z,19.80
2023-05-22T00:04:40.572Z,19.80
2023-05-22T00:07:07.658Z,19.80
2023-05-22T00:09:34.875Z,19.80
2023-05-22T00:12:01.892Z,19.70
2023-05-22T00:14:29.039Z,19.70
2023-05-22T00:16:56.661Z,19.70
2023-05-22T00:19:23.952Z,19.70
2023-05-22T00:21:51.814Z,19.70
2023-05-22T00:24:18.912Z,19.70
2023-05-22T00:26:45.974Z,19.70
2023-05-22T00:29:15.052Z,19.70
2023-05-22T00:31:42.081Z,19.70
2023-05-22T00:34:09.049Z,19.70
2023-05-22T00:36:36.136Z,19.70
2023-05-22T00:39:03.170Z,19.60
2023-05-22T00:41:30.678Z,19.60
2023-05-22T00:43:57.755Z,19.60
2023-05-22T00:46:24.963Z,19.60
2023-05-22T00:48:52.884Z,19.60
2023-05-22T00:51:22.947Z,19.60
2023-05-22T00:53:50.512Z,19.70
2023-05-22T00:56:18.724Z,19.60
2023-05-22T00:58:46.098Z,19.60
2023-05-22T01:01:13.401Z,19.60
2023-05-22T01:03:45.576Z,19.60
2023-05-22T01:06:14.221Z,19.60
2023-05-22T01:08:42.328Z,19.50
2023-05-22T01:11:18.287Z,19.50
2023-05-22T01:13:51.196Z,19.50
2023-05-22T01:16:25.462Z,19.40
2023-05-22T01:18:58.521Z,19.40
2023-05-22T01:21:39.240Z,19.30
2023-05-22T01:24:12.136Z,19.30
2023-05-22T01:27:02.047Z,19.20
2023-05-22T01:29:32.303Z,19.20
2023-05-22T01:32:00.670Z,19.20
2023-05-22T01:34:28.728Z,19.20
2023-05-22T01:36:56.610Z,19.20
2023-05-22T01:39:24.779Z,19.10
2023-05-22T01:41:52.167Z,19.10
2023-05-22T01:44:19.208Z,19.10
2023-05-22T01:46:46.403Z,19.10
2023-05-22T01:49:16.151Z,19.10
2023-05-22T01:51:53.132Z,19.10
2023-05-22T01:54:25.123Z,19.10
2023-05-22T01:57:12.390Z,19.10
2023-05-22T01:59:48.654Z,19.10
2023-05-22T02:02:18.053Z,19.10
2023-05-22T02:04:57.114Z,19.10
2023-05-22T02:07:25.323Z,19.10
2023-05-22T02:09:54.288Z,19.10
2023-05-22T02:12:22.179Z,19.10
2023-05-22T02:14:49.522Z,19.00
2023-05-22T02:17:18.312Z,19.00
2023-05-22T02:19:45.501Z,19.00
2023-05-22T02:22:15.385Z,19.00
2023-05-22T02:24:44.470Z,19.00
2023-05-22T02:27:12.108Z,18.90
2023-05-22T02:29:39.660Z,18.90
2023-05-22T02:32:06.824Z,18.90
2023-05-22T02:34:33.908Z,18.80
2023-05-22T02:37:04.089Z,18.80
2023-05-22T02:39:31.096Z,18.80
2023-05-22T02:41:58.329Z,18.80
2023-05-22T02:44:25.377Z,18.70
2023-05-22T02:46:52.608Z,18.70
2023-05-22T02:49:20.322Z,18.60
2023-05-22T02:51:48.012Z,18.60
2023-05-22T02:54:16.368Z,18.50
2023-05-22T02:56:43.990Z,18.40
2023-05-22T02:59:11.469Z,18.40
2023-05-22T03:01:39.854Z,18.50
2023-05-22T03:04:07.041Z,18.50
2023-05-22T03:06:35.604Z,18.50
2023-05-22T03:09:04.509Z,18.50
2023-05-22T03:11:32.061Z,18.50
2023-05-22T03:13:59.069Z,18.40
2023-05-22T03:16:27.034Z,18.40
2023-05-22T03:19:10.592Z,18.40
2023-05-22T03:21:37.626Z,18.40
2023-05-22T03:24:04.816Z,18.40
2023-05-22T03:26:31.867Z,18.40
2023-05-22T03:28:59.081Z,18.40
2023-05-22T03:31:27.460Z,18.40
2023-05-22T03:33:54.508Z,18.40
2023-05-22T03:36:21.907Z,18.40
2023-05-22T03:38:49.294Z,18.40
2023-05-22T03:41:16.310Z,18.30
2023-05-22T03:43:45.055Z,18.30
2023-05-22T03:46:12.371Z,18.20
2023-05-22T03:48:39.584Z,18.20
2023-05-22T03:51:06.719Z,18.10
2023-05-22T03:53:33.671Z,18.10
2023-05-22T03:56:00.727Z,18.10
2023-05-22T03:58:27.869Z,18.10
2023-05-22T04:00:55.696Z,18.10
2023-05-22T04:03:23.171Z,18.20
2023-05-22T04:05:50.389Z,18.20
2023-05-22T04:08:17.751Z,18.10
2023-05-22T04:10:46.829Z,18.20
2023-05-22T04:13:16.736Z,18.20
2023-05-22T04:15:46.065Z,18.20
2023-05-22T04:18:14.052Z,18.20
2023-05-22T04:20:41.324Z,18.20
2023-05-22T04:23:08.575Z,18.20
2023-05-22T04:25:36.662Z,18.20
2023-05-22T04:28:04.463Z,18.30
2023-05-22T04:30:34.251Z,18.30
2023-05-22T04:33:01.878Z,18.30
2023-05-22T04:35:29.766Z,18.40
2023-05-22T04:37:57.231Z,18.40
2023-05-22T04:40:24.168Z,18.50
2023-05-22T04:42:54.390Z,18.50
2023-05-22T04:45:25.569Z,18.50
2023-05-22T04:47:53.315Z,18.60
2023-05-22T04:50:20.930Z,18.60
2023-05-22T04:52:48.470Z,18.60
2023-05-22T04:55:16.480Z,18.70
2023-05-22T04:57:45.368Z,18.70
2023-05-22T05:00:14.519Z,18.70
2023-05-22T05:02:42.070Z,18.70
2023-05-22T05:05:09.262Z,18.70
2023-05-22T05:07:39.654Z,18.70
2023-05-22T05:10:07.589Z,18.70
2023-05-22T05:12:34.820Z,18.70
2023-05-22T05:15:02.228Z,18.80
2023-05-22T05:17:29.319Z,18.80
2023-05-22T05:19:57.374Z,18.80
2023-05-22T05:22:27.085Z,18.90
2023-05-22T05:24:54.441Z,18.90
2023-05-22T05:27:21.510Z,18.90
2023-05-22T05:29:48.573Z,19.00
2023-05-22T05:32:16.403Z,19.00
2023-05-22T05:34:43.618Z,19.00
2023-05-22T05:37:10.732Z,19.10
2023-05-22T05:39:37.690Z,19.10
2023-05-22T05:42:04.809Z,19.10
2023-05-22T05:44:31.977Z,19.10
2023-05-22T05:46:58.964Z,19.10
2023-05-22T05:49:25.960Z,19.10
2023-05-22T05:51:53.068Z,19.20
2023-05-22T05:54:20.122Z,19.20
2023-05-22T05:56:47.519Z,19.20
2023-05-22T05:59:14.703Z,19.30
2023-05-22T06:01:45.718Z,19.30
2023-05-22T06:04:13.367Z,19.30
2023-05-22T06:06:40.471Z,19.30
2023-05-22T06:09:07.823Z,19.30
2023-05-22T06:11:34.988Z,19.40
2023-05-22T06:14:07.035Z,19.40
2023-05-22T06:16:34.370Z,19.50
2023-05-22T06:19:01.775Z,19.50
2023-05-22T06:21:28.965Z,19.60
2023-05-22T06:23:56.016Z,19.60
2023-05-22T06:26:23.872Z,19.60
2023-05-22T06:28:52.324Z,19.70
2023-05-22T06:31:19.808Z,19.70
2023-05-22T06:33:47.144Z,19.80
2023-05-22T06:36:14.705Z,19.80
2023-05-22T06:38:41.986Z,19.90
2023-05-22T06:41:10.641Z,19.90
2023-05-22T06:43:37.920Z,20.00
2023-05-22T06:46:05.802Z,20.00
2023-05-22T06:48:36.347Z,20.00
2023-05-22T06:51:03.417Z,20.10
2023-05-22T06:53:30.780Z,20.20
2023-05-22T06:55:57.922Z,20.20
2023-05-22T06:58:25.060Z,20.30
2023-05-22T07:00:52.330Z,20.40
2023-05-22T07:03:20.201Z,20.40
2023-05-22T07:05:47.831Z,20.50
2023-05-22T07:08:15.025Z,20.50
2023-05-22T07:10:42.107Z,20.50
2023-05-22T07:13:11.920Z,20.60
2023-05-22T07:15:39.033Z,20.70
2023-05-22T07:18:06.899Z,20.70
2023-05-22T07:20:34.222Z,20.80
2023-05-22T07:23:01.207Z,20.80
2023-05-22T07:25:28.694Z,20.90
2023-05-22T07:27:56.155Z,21.00
2023-05-22T07:30:25.786Z,21.00
2023-05-22T07:32:53.000Z,21.10
2023-05-22T07:35:20.331Z,21.10
2023-05-22T07:37:47.833Z,21.20
2023-05-22T07:40:15.024Z,21.20
2023-05-22T07:42:42.209Z,21.20
2023-05-22T07:45:09.948Z,21.30
2023-05-22T07:47:36.918Z,21.30
2023-05-22T07:50:07.646Z,21.30
2023-05-22T07:52:34.827Z,21.40
2023-05-22T07:55:01.895Z,21.40
2023-05-22T07:57:30.001Z,21.40
2023-05-22T07:59:57.265Z,21.50
2023-05-22T08:02:24.528Z,21.60
2023-05-22T08:04:52.012Z,21.60
2023-05-22T08:07:19.202Z,21.70
2023-05-22T08:09:47.638Z,21.80
2023-05-22T08:12:14.799Z,21.80
2023-05-22T08:14:41.971Z,21.90
2023-05-22T08:17:08.976Z,22.00
2023-05-22T08:19:36.651Z,22.00
2023-05-22T08:22:03.901Z,22.10
2023-05-22T08:24:31.678Z,22.10
2023-05-22T08:26:58.967Z,22.20
2023-05-22T08:29:26.205Z,22.30
2023-05-22T08:31:54.255Z,22.40
2023-05-22T08:34:21.562Z,22.40
2023-05-22T08:36:50.077Z,22.50
2023-05-22T08:39:19.396Z,22.60
2023-05-22T08:41:47.833Z,22.70
2023-05-22T08:44:14.946Z,22.80
2023-05-22T08:46:46.925Z,22.90
2023-05-22T08:49:14.505Z,22.90
2023-05-22T08:51:46.664Z,23.00
2023-05-22T08:54:16.483Z,23.10
2023-05-22T08:56:53.292Z,23.10
2023-05-22T08:59:23.670Z,23.20
2023-05-22T09:01:52.723Z,23.40
2023-05-22T09:04:23.352Z,23.50
2023-05-22T09:06:50.898Z,23.60
2023-05-22T09:09:18.090Z,23.70
2023-05-22T09:11:47.875Z,23.80
2023-05-22T09:14:16.337Z,23.90
2023-05-22T09:16:47.258Z,24.00
2023-05-22T09:19:15.980Z,24.00
2023-05-22T09:21:44.727Z,24.20
2023-05-22T09:24:12.254Z,24.30
2023-05-22T09:26:39.887Z,24.40
2023-05-22T09:29:07.633Z,24.50
2023-05-22T09:31:42.057Z,24.60
2023-05-22T09:34:10.573Z,24.70
2023-05-22T09:36:37.717Z,24.90
2023-05-22T09:39:05.368Z,25.00
2023-05-22T09:41:37.481Z,25.10
2023-05-22T09:44:12.118Z,25.30
2023-05-22T09:46:43.410Z,25.40
2023-05-22T09:49:13.329Z,25.60
2023-05-22T09:51:44.567Z,25.70
2023-05-22T09:54:12.736Z,25.90
2023-05-22T09:56:40.884Z,26.10
2023-05-22T09:59:09.977Z,26.30
2023-05-22T10:01:39.122Z,26.50
2023-05-22T10:04:09.110Z,26.70
2023-05-22T10:06:37.376Z,26.80
2023-05-22T10:09:07.375Z,27.00
2023-05-22T10:11:35.389Z,27.20
2023-05-22T10:14:02.916Z,27.40
2023-05-22T10:16:30.695Z,27.50
2023-05-22T10:19:01.383Z,27.70
2023-05-22T10:21:30.082Z,27.90
2023-05-22T10:24:01.140Z,28.00
2023-05-22T10:26:29.085Z,28.10
2023-05-22T10:29:00.260Z,28.20
2023-05-22T10:31:30.537Z,28.30
2023-05-22T10:34:01.453Z,28.50
2023-05-22T10:36:48.336Z,28.60
2023-05-22T10:39:34.985Z,28.70
2023-05-22T10:42:02.479Z,28.80
2023-05-22T10:44:29.592Z,28.90
2023-05-22T10:46:56.705Z,29.00
2023-05-22T10:49:24.229Z,29.10
2023-05-22T10:52:01.946Z,29.20
2023-05-22T10:54:42.887Z,29.30
2023-05-22T10:57:12.013Z,29.30
2023-05-22T10:59:41.784Z,29.40
2023-05-22T11:02:31.529Z,29.50
2023-05-22T11:05:14.349Z,29.60
2023-05-22T11:07:41.883Z,29.70
2023-05-22T11:10:08.972Z,29.80
2023-05-22T11:12:37.710Z,29.90
2023-05-22T11:15:06.525Z,29.90
2023-05-22T11:17:34.377Z,30.00
2023-05-22T11:20:02.875Z,30.00
2023-05-22T11:22:34.666Z,30.10
2023-05-22T11:25:04.549Z,30.10
2023-05-22T11:27:32.013Z,30.10
2023-05-22T11:29:59.711Z,30.10
2023-05-22T11:32:27.549Z,30.20
2023-05-22T11:34:56.343Z,30.20
2023-05-22T11:37:23.930Z,30.10
2023-05-22T11:39:56.352Z,30.10
2023-05-22T11:42:23.691Z,30.10
2023-05-22T11:44:51.062Z,30.10
2023-05-22T11:47:18.068Z,30.20
2023-05-22T11:49:48.432Z,30.10
2023-05-22T11:52:16.711Z,30.00
2023-05-22T11:54:50.041Z,29.90
2023-05-22T11:57:17.166Z,29.90
2023-05-22T11:59:47.375Z,29.90
2023-05-22T12:02:22.195Z,29.80
2023-05-22T12:04:54.094Z,29.70
2023-05-22T12:07:22.777Z,29.70
2023-05-22T12:09:50.203Z,29.80
2023-05-22T12:12:17.340Z,29.80
2023-05-22T12:14:45.028Z,29.90
2023-05-22T12:17:16.554Z,30.00
2023-05-22T12:19:44.902Z,30.20
2023-05-22T12:22:15.271Z,30.30
2023-05-22T12:24:43.117Z,30.50
2023-05-22T12:27:13.096Z,30.50
2023-05-22T12:29:40.872Z,30.50
2023-05-22T12:32:09.552Z,30.50
2023-05-22T12:34:43.296Z,30.50
2023-05-22T12:37:20.658Z,30.50
2023-05-22T12:39:54.437Z,30.50
2023-05-22T12:42:21.668Z,30.50
2023-05-22T12:44:48.740Z,30.60
2023-05-22T12:47:15.947Z,30.70
2023-05-22T12:49:42.998Z,30.80
2023-05-22T12:52:10.021Z,30.70
2023-05-22T12:54:37.149Z,30.70
2023-05-22T12:57:04.475Z,30.70
2023-05-22T12:59:32.066Z,30.50
2023-05-22T13:02:02.530Z,30.40
2023-05-22T13:04:30.102Z,30.50
2023-05-22T13:06:57.321Z,30.50
2023-05-22T13:09:24.382Z,30.50
2023-05-22T13:11:51.898Z,30.60
2023-05-22T13:14:19.168Z,30.60
2023-05-22T13:16:46.226Z,30.70
2023-05-22T13:19:13.438Z,30.70
2023-05-22T13:21:40.838Z,30.80
2023-05-22T13:24:08.695Z,30.70
2023-05-22T13:26:36.438Z,30.70
2023-05-22T13:29:03.616Z,30.70
2023-05-22T13:31:33.552Z,30.70
2023-05-22T13:34:03.112Z,30.50
2023-05-22T13:36:31.632Z,30.50
2023-05-22T13:38:59.137Z,30.40
2023-05-22T13:41:26.465Z,30.40
2023-05-22T13:43:53.586Z,30.40
2023-05-22T13:46:22.253Z,30.30
2023-05-22T13:48:49.537Z,30.30
2023-05-22T13:51:17.223Z,30.30
2023-05-22T13:53:44.473Z,30.30
2023-05-22T13:56:12.215Z,30.30
2023-05-22T13:58:39.341Z,30.20
2023-05-22T14:01:07.710Z,30.20
2023-05-22T14:03:35.176Z,30.10
2023-05-22T14:06:02.559Z,29.90
2023-05-22T14:08:30.168Z,29.80
2023-05-22T14:10:57.629Z,29.70
2023-05-22T14:13:25.133Z,29.50
2023-05-22T14:15:52.614Z,29.40
2023-05-22T14:18:19.764Z,29.40
2023-05-22T14:20:49.983Z,29.40
2023-05-22T14:23:20.456Z,29.30
2023-05-22T14:25:53.833Z,29.30
2023-05-22T14:28:20.906Z,29.30
2023-05-22T14:30:53.306Z,29.20
2023-05-22T14:33:20.648Z,29.10
2023-05-22T14:35:51.927Z,29.00
2023-05-22T14:38:19.328Z,28.90
2023-05-22T14:40:48.931Z,28.80
2023-05-22T14:43:16.178Z,28.70
2023-05-22T14:45:44.090Z,28.60
2023-05-22T14:48:11.936Z,28.50
2023-05-22T14:50:39.252Z,28.40
2023-05-22T14:53:06.463Z,28.30
2023-05-22T14:55:33.833Z,28.20
2023-05-22T14:58:00.927Z,28.10
2023-05-22T15:00:28.647Z,28.10
2023-05-22T15:02:55.961Z,28.00
2023-05-22T15:05:23.473Z,28.00
2023-05-22T15:10:18.455Z,27.90
2023-05-22T15:12:47.551Z,27.80
2023-05-22T15:15:14.596Z,27.70
2023-05-22T15:17:42.905Z,27.70
2023-05-22T15:20:10.769Z,27.60
2023-05-22T15:22:37.829Z,27.70
2023-05-22T15:25:05.877Z,27.60
2023-05-22T15:27:35.340Z,27.50
2023-05-22T15:30:02.968Z,27.50
2023-05-22T15:32:31.947Z,27.40
2023-05-22T15:34:58.979Z,27.30
2023-05-22T15:37:26.719Z,27.30
2023-05-22T15:39:53.982Z,27.20
2023-05-22T15:42:22.131Z,27.10
2023-05-22T15:44:49.262Z,27.10
2023-05-22T15:47:17.105Z,27.10
2023-05-22T15:49:44.366Z,27.10
2023-05-22T15:52:11.629Z,27.10
2023-05-22T15:54:38.679Z,27.00
2023-05-22T15:57:05.767Z,27.00
2023-05-22T15:59:32.791Z,26.90
2023-05-22T16:01:59.893Z,26.90
2023-05-22T16:04:26.915Z,26.80
2023-05-22T16:06:53.876Z,26.80
2023-05-22T16:09:21.057Z,26.80
2023-05-22T16:11:48.079Z,26.70
2023-05-22T16:14:15.192Z,26.70
2023-05-22T16:16:42.338Z,26.70
2023-05-22T16:19:10.475Z,26.60
2023-05-22T16:21:37.612Z,26.60
2023-05-22T16:24:06.655Z,26.50
2023-05-22T16:26:33.742Z,26.50
2023-05-22T16:29:01.139Z,26.50
2023-05-22T16:31:28.968Z,26.40
2023-05-22T16:33:56.046Z,26.40
2023-05-22T16:36:25.135Z,26.40
2023-05-22T16:38:53.520Z,26.30
2023-05-22T16:41:20.577Z,26.30
2023-05-22T16:43:48.461Z,26.30
2023-05-22T16:46:16.047Z,26.30
2023-05-22T16:48:43.039Z,26.20
2023-05-22T16:51:10.710Z,26.20
2023-05-22T16:53:39.004Z,26.10
2023-05-22T16:56:06.457Z,26.10
2023-05-22T16:58:33.671Z,26.00
2023-05-22T17:01:01.217Z,26.00
2023-05-22T17:03:31.274Z,25.90
2023-05-22T17:05:58.531Z,25.80
2023-05-22T17:08:28.492Z,25.80
2023-05-22T17:10:56.001Z,25.70
2023-05-22T17:13:22.924Z,25.70
2023-05-22T17:15:50.286Z,25.60
2023-05-22T17:18:20.023Z,25.50
2023-05-22T17:20:47.648Z,25.50
2023-05-22T17:23:14.800Z,25.40
2023-05-22T17:25:42.090Z,25.40
2023-05-22T17:28:09.533Z,25.30
2023-05-22T17:30:36.627Z,25.30
2023-05-22T17:33:04.027Z,25.20
2023-05-22T17:35:31.170Z,25.10
2023-05-22T17:37:58.316Z,25.10
2023-05-22T17:40:40.038Z,25.10
2023-05-22T17:43:11.725Z,25.00
2023-05-22T17:45:38.945Z,25.00
2023-05-22T17:48:06.948Z,25.00
2023-05-22T17:50:34.200Z,24.90
2023-05-22T17:53:01.786Z,24.90
2023-05-22T17:55:28.975Z,24.90
2023-05-22T17:57:56.376Z,24.80
2023-05-22T18:00:23.663Z,24.80
2023-05-22T18:02:50.914Z,24.70
2023-05-22T18:05:18.415Z,24.70
2023-05-22T18:07:45.636Z,24.60
2023-05-22T18:10:12.760Z,24.60
2023-05-22T18:12:40.035Z,24.50
2023-05-22T18:15:09.888Z,24.50
2023-05-22T18:17:37.088Z,24.50
2023-05-22T18:20:07.686Z,24.40
2023-05-22T18:22:37.309Z,24.40
2023-05-22T18:25:07.741Z,24.30
2023-05-22T18:27:35.102Z,24.30
2023-05-22T18:30:02.680Z,24.20
2023-05-22T18:32:30.067Z,24.20
2023-05-22T18:34:58.820Z,24.20
2023-05-22T18:37:26.446Z,24.10
2023-05-22T18:39:54.034Z,24.10
2023-05-22T18:42:22.287Z,24.00
2023-05-22T18:44:51.909Z,24.00
2023-05-22T18:47:18.961Z,23.90
2023-05-22T18:49:46.278Z,23.90
2023-05-22T18:52:13.557Z,23.80
2023-05-22T18:54:41.093Z,23.80
2023-05-22T18:57:08.371Z,23.70
2023-05-22T18:59:35.614Z,23.70
2023-05-22T19:02:02.769Z,23.60
2023-05-22T19:04:29.858Z,23.60
2023-05-22T19:06:57.034Z,23.50
2023-05-22T19:09:24.856Z,23.40
2023-05-22T19:11:52.462Z,23.40
2023-05-22T19:14:22.726Z,23.20
2023-05-22T19:16:50.072Z,23.10
2023-05-22T19:19:17.348Z,23.10
2023-05-22T19:21:44.599Z,23.00
2023-05-22T19:24:11.716Z,22.90
2023-05-22T19:26:38.739Z,22.80
2023-05-22T19:29:07.569Z,22.80
2023-05-22T19:31:34.700Z,22.70
2023-05-22T19:34:02.013Z,22.70
2023-05-22T19:36:29.089Z,22.70
2023-05-22T19:38:56.119Z,22.60
2023-05-22T19:41:23.933Z,22.60
2023-05-22T19:43:52.173Z,22.50
2023-05-22T19:46:22.873Z,22.40
2023-05-22T19:48:53.583Z,22.40
2023-05-22T19:51:21.742Z,22.40
2023-05-22T19:53:52.007Z,22.30
2023-05-22T19:56:22.108Z,22.30
2023-05-22T19:58:52.266Z,22.20
2023-05-22T20:01:22.166Z,22.10
2023-05-22T20:03:52.402Z,22.10
2023-05-22T20:06:21.983Z,22.10
2023-05-22T20:08:49.112Z,22.00
2023-05-22T20:11:16.169Z,22.00
2023-05-22T20:13:43.136Z,21.90
2023-05-22T20:16:12.919Z,21.90
2023-05-22T20:18:41.203Z,21.80
2023-05-22T20:21:08.514Z,21.80
2023-05-22T20:23:35.679Z,21.70
2023-05-22T20:26:02.779Z,21.70
2023-05-22T20:28:29.840Z,21.70
2023-05-22T20:30:56.909Z,21.70
2023-05-22T20:33:24.611Z,21.70
2023-05-22T20:35:53.339Z,21.70
2023-05-22T20:38:20.482Z,21.60
2023-05-22T20:40:47.804Z,21.60
2023-05-22T20:43:14.902Z,21.60
2023-05-22T20:45:45.981Z,21.60
2023-05-22T20:48:14.015Z,21.50
2023-05-22T20:50:42.414Z,21.50
2023-05-22T20:53:09.507Z,21.40
2023-05-22T20:55:37.560Z,21.40
2023-05-22T20:58:04.937Z,21.40
2023-05-22T21:00:31.936Z,21.30
2023-05-22T21:03:01.336Z,21.30
2023-05-22T21:05:28.432Z,21.20
2023-05-22T21:07:55.449Z,21.20
2023-05-22T21:10:22.486Z,21.10
2023-05-22T21:12:49.515Z,21.10
2023-05-22T21:15:16.584Z,21.10
2023-05-22T21:17:44.162Z,21.00
2023-05-22T21:20:11.482Z,21.00
2023-05-22T21:22:38.526Z,21.00
2023-05-22T21:25:05.808Z,21.00
2023-05-22T21:27:32.860Z,21.10
2023-05-22T21:29:59.882Z,21.00
2023-05-22T21:32:26.921Z,21.00
2023-05-22T21:34:54.456Z,21.00
2023-05-22T21:37:21.645Z,20.90
2023-05-22T21:39:51.306Z,20.90
2023-05-22T21:42:19.744Z,20.80
2023-05-22T21:44:47.476Z,20.80
2023-05-22T21:47:14.655Z,20.80
2023-05-22T21:49:42.143Z,20.80
2023-05-22T21:52:09.396Z,20.80
2023-05-22T21:54:36.721Z,20.70
2023-05-22T21:57:03.896Z,20.70
2023-05-22T21:59:31.127Z,20.60
2023-05-22T22:01:58.373Z,20.60
2023-05-22T22:04:26.329Z,20.50
2023-05-22T22:06:53.716Z,20.50
2023-05-22T22:09:23.460Z,20.40
2023-05-22T22:11:51.005Z,20.40
2023-05-22T22:14:18.069Z,20.30
2023-05-22T22:16:46.007Z,20.20
2023-05-22T22:19:13.294Z,20.20
2023-05-22T22:21:40.620Z,20.10
2023-05-22T22:24:07.903Z,20.10
2023-05-22T22:26:35.925Z,20.00
2023-05-22T22:29:02.947Z,20.00
2023-05-22T22:31:30.039Z,19.90
2023-05-22T22:33:57.110Z,19.90
2023-05-22T22:36:24.381Z,19.90
2023-05-22T22:38:51.450Z,19.80
2023-05-22T22:41:18.806Z,19.80
2023-05-22T22:43:46.145Z,19.80
2023-05-22T22:46:13.241Z,19.80
2023-05-22T22:48:42.089Z,19.70
2023-05-22T22:51:09.894Z,19.70
2023-05-22T22:53:37.277Z,19.70
2023-05-22T22:56:04.747Z,19.70
2023-05-22T22:58:31.835Z,19.70
2023-05-22T23:00:59.157Z,19.70
2023-05-22T23:03:27.316Z,19.60
2023-05-22T23:05:54.313Z,19.60
2023-05-22T23:08:23.654Z,19.60
2023-05-22T23:10:50.790Z,19.60
2023-05-22T23:13:17.882Z,19.50
2023-05-22T23:15:44.925Z,19.50
2023-05-22T23:18:14.139Z,19.40
2023-05-22T23:21:22.103Z,19.30
2023-05-22T23:23:50.827Z,19.30
2023-05-22T23:26:18.314Z,19.30
2023-05-22T23:28:45.786Z,19.30
2023-05-22T23:31:14.827Z,19.30
2023-05-22T23:33:42.552Z,19.20
2023-05-22T23:36:09.929Z,19.20
2023-05-22T23:38:37.376Z,19.20
2023-05-22T23:41:04.592Z,19.20
2023-05-22T23:43:32.265Z,19.10
2023-05-22T23:46:01.560Z,19.10
2023-05-22T23:48:28.820Z,19.20
2023-05-22T23:50:56.209Z,19.10
2023-05-22T23:53:23.207Z,19.10
2023-05-22T23:55:50.825Z,19.10
2023-05-22T23:58:17.883Z,19.10
